sensor_id;sensor_type;location;lat;lon;timestamp;temperature;humidity
2639;DHT22;1329;51.384;7.122;2023-06-22T00:00:49;24.20;1.00
2639;DHT22;1329;51.384;7.122;2023-06-22T00:03:17;24.20;1.00
2639;DHT22;1329;51.384;7.122;2023-06-22T00:05:45;24.20;1.00
2639;DHT22;1329;51.384;7.122;2023-06-22T00:08:12;24.10;1.00
2639;DHT22;1329;51.384;7.122;2023-06-22T00:10:39;24.10;1.00
2639;DHT22;1329;51.384;7.122;2023-06-22T00:13:08;24.10;1.00
2639;DHT22;1329;51.384;7.122;2023-06-22T00:15:38;24.00;1.00
2639;DHT22;1329;51.384;7.122;2023-06-22T00:18:06;24.00;1.00
2639;DHT22;1329;51.384;7.122;2023-06-22T00:20:34;24.00;1.00
2639;DHT22;1329;51.384;7.122;2023-06-22T00:23:03;24.00;1.00
2639;DHT22;1329;51.384;7.122;2023-06-22T00:25:33;23.90;1.00
2639;DHT22;1329;51.384;7.122;2023-06-22T00:28:01;23.90;1.00
2639;DHT22;1329;51.384;7.122;2023-06-22T00:30:30;23.90;1.00
2639;DHT22;1329;51.384;7.122;2023-06-22T00:32:58;23.90;1.00
2639;DHT22;1329;51.384;7.122;2023-06-22T00:35:28;23.80;1.00
2639;DHT22;1329;51.384;7.122;2023-06-22T00:37:56;23.80;1.00
2639;DHT22;1329;51.384;7.122;2023-06-22T00:40:27;23.80;1.00
2639;DHT22;1329;51.384;7.122;2023-06-22T00:42:54;23.80;1.00
2639;DHT22;1329;51.384;7.122;2023-06-22T00:45:22;23.80;1.00
2639;DHT22;1329;51.384;7.122;2023-06-22T00:47:51;23.70;1.00
2639;DHT22;1329;51.384;7.122;2023-06-22T00:50:20;23.70;1.00
2639;DHT22;1329;51.384;7.122;2023-06-22T00:52:51;23.70;1.00
2639;DHT22;1329;51.384;7.122;2023-06-22T00:55:19;23.70;1.00
2639;DHT22;1329;51.384;7.122;2023-06-22T00:57:47;23.70;1.00
2639;DHT22;1329;51.384;7.122;2023-06-22T01:00:15;23.70;1.00
2639;DHT22;1329;51.384;7.122;2023-06-22T01:02:45;23.70;1.00
2639;DHT22;1329;51.384;7.122;2023-06-22T01:05:18;23.70;1.00
2639;DHT22;1329;51.384;7.122;2023-06-22T01:07:56;23.70;1.00
2639;DHT22;1329;51.384;7.122;2023-06-22T01:10:34;23.70;1.00
2639;DHT22;1329;51.384;7.122;2023-06-22T01:13:16;23.70;1.00
2639;DHT22;1329;51.384;7.122;2023-06-22T01:15:55;23.60;1.00
2639;DHT22;1329;51.384;7.122;2023-06-22T01:18:25;23.60;1.00
2639;DHT22;1329;51.384;7.122;2023-06-22T01:20:57;23.50;1.00
2639;DHT22;1329;51.384;7.122;2023-06-22T01:23:29;23.50;1.00
2639;DHT22;1329;51.384;7.122;2023-06-22T01:26:06;23.50;1.00
2639;DHT22;1329;51.384;7.122;2023-06-22T01:28:42;23.50;1.00
2639;DHT22;1329;51.384;7.122;2023-06-22T01:31:12;23.50;1.00
2639;DHT22;1329;51.384;7.122;2023-06-22T01:33:43;23.50;1.00
2639;DHT22;1329;51.384;7.122;2023-06-22T01:36:12;23.50;1.00
2639;DHT22;1329;51.384;7.122;2023-06-22T01:38:42;23.40;1.00
2639;DHT22;1329;51.384;7.122;2023-06-22T01:41:10;23.40;1.00
2639;DHT22;1329;51.384;7.122;2023-06-22T01:43:39;23.40;1.00
2639;DHT22;1329;51.384;7.122;2023-06-22T01:46:07;23.40;1.00
2639;DHT22;1329;51.384;7.122;2023-06-22T01:48:34;23.40;1.00
2639;DHT22;1329;51.384;7.122;2023-06-22T01:51:02;23.40;1.00
2639;DHT22;1329;51.384;7.122;2023-06-22T01:53:29;23.40;1.00
2639;DHT22;1329;51.384;7.122;2023-06-22T01:55:56;23.40;1.00
2639;DHT22;1329;51.384;7.122;2023-06-22T01:58:25;23.40;1.00
2639;DHT22;1329;51.384;7.122;2023-06-22T02:00:57;23.40;1.00
2639;DHT22;1329;51.384;7.122;2023-06-22T02:03:31;23.40;1.00
2639;DHT22;1329;51.384;7.122;2023-06-22T02:06:04;23.40;1.00
2639;DHT22;1329;51.384;7.122;2023-06-22T02:08:40;23.40;1.00
2639;DHT22;1329;51.384;7.122;2023-06-22T02:11:09;23.40;1.00
2639;DHT22;1329;51.384;7.122;2023-06-22T02:13:36;23.40;1.00
2639;DHT22;1329;51.384;7.122;2023-06-22T02:16:10;23.30;1.00
2639;DHT22;1329;51.384;7.122;2023-06-22T02:18:37;23.30;1.00
2639;DHT22;1329;51.384;7.122;2023-06-22T02:21:05;23.30;1.00
2639;DHT22;1329;51.384;7.122;2023-06-22T02:23:32;23.30;1.00
2639;DHT22;1329;51.384;7.122;2023-06-22T02:26:01;23.30;1.00
2639;DHT22;1329;51.384;7.122;2023-06-22T02:28:28;23.30;1.00
2639;DHT22;1329;51.384;7.122;2023-06-22T02:30:55;23.30;1.00
2639;DHT22;1329;51.384;7.122;2023-06-22T02:33:23;23.30;1.00
2639;DHT22;1329;51.384;7.122;2023-06-22T02:35:50;23.20;1.00
2639;DHT22;1329;51.384;7.122;2023-06-22T02:38:17;23.20;1.00
2639;DHT22;1329;51.384;7.122;2023-06-22T02:40:44;23.20;1.00
2639;DHT22;1329;51.384;7.122;2023-06-22T02:43:12;23.20;1.00
2639;DHT22;1329;51.384;7.122;2023-06-22T02:45:38;23.10;1.00
2639;DHT22;1329;51.384;7.122;2023-06-22T02:48:05;23.10;1.00
2639;DHT22;1329;51.384;7.122;2023-06-22T02:50:33;23.10;1.00
2639;DHT22;1329;51.384;7.122;2023-06-22T02:53:00;23.10;1.00
2639;DHT22;1329;51.384;7.122;2023-06-22T02:55:27;23.00;1.00
2639;DHT22;1329;51.384;7.122;2023-06-22T02:57:54;23.00;1.00
2639;DHT22;1329;51.384;7.122;2023-06-22T03:00:22;23.00;1.00
2639;DHT22;1329;51.384;7.122;2023-06-22T03:02:55;23.00;1.00
2639;DHT22;1329;51.384;7.122;2023-06-22T03:05:23;22.90;1.00
2639;DHT22;1329;51.384;7.122;2023-06-22T03:07:51;22.90;1.00
2639;DHT22;1329;51.384;7.122;2023-06-22T03:10:18;22.90;1.00
2639;DHT22;1329;51.384;7.122;2023-06-22T03:12:46;22.80;1.00
2639;DHT22;1329;51.384;7.122;2023-06-22T03:15:13;22.90;1.00
2639;DHT22;1329;51.384;7.122;2023-06-22T03:17:40;22.80;1.00
2639;DHT22;1329;51.384;7.122;2023-06-22T03:20:08;22.80;1.00
2639;DHT22;1329;51.384;7.122;2023-06-22T03:22:37;22.80;1.00
2639;DHT22;1329;51.384;7.122;2023-06-22T03:25:07;22.70;1.00
2639;DHT22;1329;51.384;7.122;2023-06-22T03:27:38;22.70;1.00
2639;DHT22;1329;51.384;7.122;2023-06-22T03:30:08;22.70;1.00
2639;DHT22;1329;51.384;7.122;2023-06-22T03:32:37;22.70;1.00
2639;DHT22;1329;51.384;7.122;2023-06-22T03:35:04;22.70;1.00
2639;DHT22;1329;51.384;7.122;2023-06-22T03:37:32;22.60;1.00
2639;DHT22;1329;51.384;7.122;2023-06-22T03:39:59;22.60;1.00
2639;DHT22;1329;51.384;7.122;2023-06-22T03:42:27;22.60;1.00
2639;DHT22;1329;51.384;7.122;2023-06-22T03:44:54;22.60;1.00
2639;DHT22;1329;51.384;7.122;2023-06-22T03:47:21;22.60;1.00
2639;DHT22;1329;51.384;7.122;2023-06-22T03:49:48;22.50;1.00
2639;DHT22;1329;51.384;7.122;2023-06-22T03:52:15;22.50;1.00
2639;DHT22;1329;51.384;7.122;2023-06-22T03:54:42;22.50;1.00
2639;DHT22;1329;51.384;7.122;2023-06-22T03:57:09;22.50;1.00
2639;DHT22;1329;51.384;7.122;2023-06-22T03:59:37;22.50;1.00
2639;DHT22;1329;51.384;7.122;2023-06-22T04:02:04;22.50;1.00
2639;DHT22;1329;51.384;7.122;2023-06-22T04:04:31;22.50;1.00
2639;DHT22;1329;51.384;7.122;2023-06-22T04:06:59;22.50;1.00
2639;DHT22;1329;51.384;7.122;2023-06-22T04:09:26;22.40;1.00
2639;DHT22;1329;51.384;7.122;2023-06-22T04:11:52;22.50;1.00
2639;DHT22;1329;51.384;7.122;2023-06-22T04:14:19;22.40;1.00
2639;DHT22;1329;51.384;7.122;2023-06-22T04:16:47;22.50;1.00
2639;DHT22;1329;51.384;7.122;2023-06-22T04:19:14;22.50;1.00
2639;DHT22;1329;51.384;7.122;2023-06-22T04:21:43;22.50;1.00
2639;DHT22;1329;51.384;7.122;2023-06-22T04:24:10;22.50;1.00
2639;DHT22;1329;51.384;7.122;2023-06-22T04:26:37;22.60;1.00
2639;DHT22;1329;51.384;7.122;2023-06-22T04:29:06;22.60;1.00
2639;DHT22;1329;51.384;7.122;2023-06-22T04:31:34;22.60;1.00
2639;DHT22;1329;51.384;7.122;2023-06-22T04:34:04;22.60;1.00
2639;DHT22;1329;51.384;7.122;2023-06-22T04:36:36;22.60;1.00
2639;DHT22;1329;51.384;7.122;2023-06-22T04:39:05;22.60;1.00
2639;DHT22;1329;51.384;7.122;2023-06-22T04:41:35;22.60;1.00
2639;DHT22;1329;51.384;7.122;2023-06-22T04:44:09;22.60;1.00
2639;DHT22;1329;51.384;7.122;2023-06-22T04:46:36;22.60;1.00
2639;DHT22;1329;51.384;7.122;2023-06-22T04:49:06;22.60;1.00
2639;DHT22;1329;51.384;7.122;2023-06-22T04:51:38;22.60;1.00
2639;DHT22;1329;51.384;7.122;2023-06-22T04:54:06;22.60;1.00
2639;DHT22;1329;51.384;7.122;2023-06-22T04:56:33;22.50;1.00
2639;DHT22;1329;51.384;7.122;2023-06-22T04:59:00;22.50;1.00
2639;DHT22;1329;51.384;7.122;2023-06-22T05:01:28;22.40;1.00
2639;DHT22;1329;51.384;7.122;2023-06-22T05:03:56;22.40;1.00
2639;DHT22;1329;51.384;7.122;2023-06-22T05:06:27;22.40;1.00
2639;DHT22;1329;51.384;7.122;2023-06-22T05:08:55;22.30;1.00
2639;DHT22;1329;51.384;7.122;2023-06-22T05:11:24;22.30;1.00
2639;DHT22;1329;51.384;7.122;2023-06-22T05:13:51;22.20;1.00
2639;DHT22;1329;51.384;7.122;2023-06-22T05:16:19;22.20;1.00
2639;DHT22;1329;51.384;7.122;2023-06-22T05:18:50;22.10;1.00
2639;DHT22;1329;51.384;7.122;2023-06-22T05:21:21;22.00;1.00
2639;DHT22;1329;51.384;7.122;2023-06-22T05:23:49;22.00;1.00
2639;DHT22;1329;51.384;7.122;2023-06-22T05:26:16;22.00;1.00
2639;DHT22;1329;51.384;7.122;2023-06-22T05:28:43;22.00;1.00
2639;DHT22;1329;51.384;7.122;2023-06-22T05:31:11;22.00;1.00
2639;DHT22;1329;51.384;7.122;2023-06-22T05:33:39;22.00;1.00
2639;DHT22;1329;51.384;7.122;2023-06-22T05:36:06;22.00;1.00
2639;DHT22;1329;51.384;7.122;2023-06-22T05:38:33;22.00;1.00
2639;DHT22;1329;51.384;7.122;2023-06-22T05:41:01;22.10;1.00
2639;DHT22;1329;51.384;7.122;2023-06-22T05:43:28;22.10;1.00
2639;DHT22;1329;51.384;7.122;2023-06-22T05:45:55;22.10;1.00
2639;DHT22;1329;51.384;7.122;2023-06-22T05:48:22;22.20;2.50
2639;DHT22;1329;51.384;7.122;2023-06-22T05:50:49;22.20;4.00
2639;DHT22;1329;51.384;7.122;2023-06-22T05:53:16;22.20;6.30
2639;DHT22;1329;51.384;7.122;2023-06-22T05:55:43;22.30;8.10
2639;DHT22;1329;51.384;7.122;2023-06-22T05:58:11;22.40;9.60
2639;DHT22;1329;51.384;7.122;2023-06-22T06:00:39;22.40;10.60
2639;DHT22;1329;51.384;7.122;2023-06-22T06:03:07;22.50;10.20
2639;DHT22;1329;51.384;7.122;2023-06-22T06:05:34;22.50;11.40
2639;DHT22;1329;51.384;7.122;2023-06-22T06:08:02;22.50;11.70
2639;DHT22;1329;51.384;7.122;2023-06-22T06:10:30;22.60;11.80
2639;DHT22;1329;51.384;7.122;2023-06-22T06:12:58;22.60;12.00
2639;DHT22;1329;51.384;7.122;2023-06-22T06:15:28;22.60;14.50
2639;DHT22;1329;51.384;7.122;2023-06-22T06:17:56;22.70;15.10
2639;DHT22;1329;51.384;7.122;2023-06-22T06:20:23;22.70;16.40
2639;DHT22;1329;51.384;7.122;2023-06-22T06:22:51;22.70;19.00
2639;DHT22;1329;51.384;7.122;2023-06-22T06:25:18;22.80;21.20
2639;DHT22;1329;51.384;7.122;2023-06-22T06:27:48;22.80;21.50
2639;DHT22;1329;51.384;7.122;2023-06-22T06:30:18;22.90;20.50
2639;DHT22;1329;51.384;7.122;2023-06-22T06:32:46;22.90;20.30
2639;DHT22;1329;51.384;7.122;2023-06-22T06:35:14;23.00;21.00
2639;DHT22;1329;51.384;7.122;2023-06-22T06:37:43;23.00;23.20
2639;DHT22;1329;51.384;7.122;2023-06-22T06:40:12;23.00;24.20
2639;DHT22;1329;51.384;7.122;2023-06-22T06:42:39;23.00;24.30
2639;DHT22;1329;51.384;7.122;2023-06-22T06:45:10;23.10;26.70
2639;DHT22;1329;51.384;7.122;2023-06-22T06:47:37;23.20;26.10
2639;DHT22;1329;51.384;7.122;2023-06-22T06:50:06;23.20;26.50
2639;DHT22;1329;51.384;7.122;2023-06-22T06:52:34;23.30;27.30
2639;DHT22;1329;51.384;7.122;2023-06-22T06:55:01;23.30;28.70
2639;DHT22;1329;51.384;7.122;2023-06-22T06:57:29;23.40;29.40
2639;DHT22;1329;51.384;7.122;2023-06-22T06:59:57;23.40;28.40
2639;DHT22;1329;51.384;7.122;2023-06-22T07:02:25;23.40;28.10
2639;DHT22;1329;51.384;7.122;2023-06-22T07:04:53;23.50;26.90
2639;DHT22;1329;51.384;7.122;2023-06-22T07:07:23;23.50;26.70
2639;DHT22;1329;51.384;7.122;2023-06-22T07:09:50;23.50;23.80
2639;DHT22;1329;51.384;7.122;2023-06-22T07:12:17;23.50;24.70
2639;DHT22;1329;51.384;7.122;2023-06-22T07:14:44;23.50;24.10
2639;DHT22;1329;51.384;7.122;2023-06-22T07:17:10;23.50;25.10
2639;DHT22;1329;51.384;7.122;2023-06-22T07:19:37;23.40;25.50
2639;DHT22;1329;51.384;7.122;2023-06-22T07:22:04;23.40;26.00
2639;DHT22;1329;51.384;7.122;2023-06-22T07:24:33;23.30;29.00
2639;DHT22;1329;51.384;7.122;2023-06-22T07:27:00;23.20;36.80
2639;DHT22;1329;51.384;7.122;2023-06-22T07:29:29;23.10;41.60
2639;DHT22;1329;51.384;7.122;2023-06-22T07:31:57;23.10;47.90
2639;DHT22;1329;51.384;7.122;2023-06-22T07:34:25;23.00;51.40
2639;DHT22;1329;51.384;7.122;2023-06-22T07:36:52;23.00;54.00
2639;DHT22;1329;51.384;7.122;2023-06-22T07:39:19;22.90;59.40
2639;DHT22;1329;51.384;7.122;2023-06-22T07:41:52;22.90;64.20
2639;DHT22;1329;51.384;7.122;2023-06-22T07:44:19;22.90;68.00
2639;DHT22;1329;51.384;7.122;2023-06-22T07:46:46;22.80;69.10
2639;DHT22;1329;51.384;7.122;2023-06-22T07:49:13;22.80;69.30
2639;DHT22;1329;51.384;7.122;2023-06-22T07:51:39;22.80;71.90
2639;DHT22;1329;51.384;7.122;2023-06-22T07:54:06;22.70;75.40
2639;DHT22;1329;51.384;7.122;2023-06-22T07:56:33;22.70;75.10
2639;DHT22;1329;51.384;7.122;2023-06-22T07:59:01;22.70;78.40
2639;DHT22;1329;51.384;7.122;2023-06-22T08:01:29;22.70;85.50
2639;DHT22;1329;51.384;7.122;2023-06-22T08:03:56;22.60;88.40
2639;DHT22;1329;51.384;7.122;2023-06-22T08:06:22;22.60;90.60
2639;DHT22;1329;51.384;7.122;2023-06-22T08:08:49;22.60;93.60
2639;DHT22;1329;51.384;7.122;2023-06-22T08:11:18;22.60;94.80
2639;DHT22;1329;51.384;7.122;2023-06-22T08:13:45;22.60;97.10
2639;DHT22;1329;51.384;7.122;2023-06-22T08:16:13;22.60;97.60
2639;DHT22;1329;51.384;7.122;2023-06-22T08:18:40;22.60;99.90
2639;DHT22;1329;51.384;7.122;2023-06-22T08:21:07;22.60;99.90
2639;DHT22;1329;51.384;7.122;2023-06-22T08:23:34;22.70;99.90
2639;DHT22;1329;51.384;7.122;2023-06-22T08:26:00;22.70;99.90
2639;DHT22;1329;51.384;7.122;2023-06-22T08:28:27;22.70;99.90
2639;DHT22;1329;51.384;7.122;2023-06-22T08:30:54;22.70;99.90
2639;DHT22;1329;51.384;7.122;2023-06-22T08:33:22;22.80;99.90
2639;DHT22;1329;51.384;7.122;2023-06-22T08:35:54;22.90;99.90
2639;DHT22;1329;51.384;7.122;2023-06-22T08:38:21;22.90;99.90
2639;DHT22;1329;51.384;7.122;2023-06-22T08:40:47;23.00;99.90
2639;DHT22;1329;51.384;7.122;2023-06-22T08:43:14;23.10;99.90
2639;DHT22;1329;51.384;7.122;2023-06-22T08:45:41;23.10;99.90
2639;DHT22;1329;51.384;7.122;2023-06-22T08:48:08;23.20;99.90
2639;DHT22;1329;51.384;7.122;2023-06-22T08:50:36;23.20;99.90
2639;DHT22;1329;51.384;7.122;2023-06-22T08:53:03;23.30;99.90
2639;DHT22;1329;51.384;7.122;2023-06-22T08:55:29;23.40;99.90
2639;DHT22;1329;51.384;7.122;2023-06-22T08:57:56;23.40;99.90
2639;DHT22;1329;51.384;7.122;2023-06-22T09:00:23;23.50;99.90
2639;DHT22;1329;51.384;7.122;2023-06-22T09:02:50;23.50;99.90
2639;DHT22;1329;51.384;7.122;2023-06-22T09:05:17;23.60;99.90
2639;DHT22;1329;51.384;7.122;2023-06-22T09:07:45;23.70;99.90
2639;DHT22;1329;51.384;7.122;2023-06-22T09:10:12;23.90;99.90
2639;DHT22;1329;51.384;7.122;2023-06-22T09:12:39;24.20;99.90
2639;DHT22;1329;51.384;7.122;2023-06-22T09:15:07;24.50;99.90
2639;DHT22;1329;51.384;7.122;2023-06-22T09:17:34;24.80;99.90
2639;DHT22;1329;51.384;7.122;2023-06-22T09:20:02;25.20;99.90
2639;DHT22;1329;51.384;7.122;2023-06-22T09:22:31;25.60;99.90
2639;DHT22;1329;51.384;7.122;2023-06-22T09:24:59;25.90;99.90
2639;DHT22;1329;51.384;7.122;2023-06-22T09:27:26;26.20;99.90
2639;DHT22;1329;51.384;7.122;2023-06-22T09:29:53;26.60;99.90
2639;DHT22;1329;51.384;7.122;2023-06-22T09:32:20;26.80;99.90
2639;DHT22;1329;51.384;7.122;2023-06-22T09:34:46;27.00;99.90
2639;DHT22;1329;51.384;7.122;2023-06-22T09:37:13;27.10;99.90
2639;DHT22;1329;51.384;7.122;2023-06-22T09:39:40;27.30;99.90
2639;DHT22;1329;51.384;7.122;2023-06-22T09:42:09;27.50;99.90
2639;DHT22;1329;51.384;7.122;2023-06-22T09:44:35;27.60;99.90
2639;DHT22;1329;51.384;7.122;2023-06-22T09:47:03;27.70;99.90
2639;DHT22;1329;51.384;7.122;2023-06-22T09:49:30;27.80;99.90
2639;DHT22;1329;51.384;7.122;2023-06-22T09:51:57;27.80;99.90
2639;DHT22;1329;51.384;7.122;2023-06-22T09:54:24;27.80;99.70
2639;DHT22;1329;51.384;7.122;2023-06-22T09:56:51;27.80;97.90
2639;DHT22;1329;51.384;7.122;2023-06-22T09:59:19;27.70;93.90
2639;DHT22;1329;51.384;7.122;2023-06-22T10:01:46;27.70;92.00
2639;DHT22;1329;51.384;7.122;2023-06-22T10:04:13;27.70;92.30
2639;DHT22;1329;51.384;7.122;2023-06-22T10:06:39;27.60;90.30
2639;DHT22;1329;51.384;7.122;2023-06-22T10:09:06;27.50;88.30
2639;DHT22;1329;51.384;7.122;2023-06-22T10:11:34;27.50;82.80
2639;DHT22;1329;51.384;7.122;2023-06-22T10:14:01;27.40;80.20
2639;DHT22;1329;51.384;7.122;2023-06-22T10:16:31;27.30;82.80
2639;DHT22;1329;51.384;7.122;2023-06-22T10:19:00;27.30;72.20
2639;DHT22;1329;51.384;7.122;2023-06-22T10:21:27;27.20;81.10
2639;DHT22;1329;51.384;7.122;2023-06-22T10:23:55;27.20;80.70
2639;DHT22;1329;51.384;7.122;2023-06-22T10:26:21;27.10;77.30
2639;DHT22;1329;51.384;7.122;2023-06-22T10:28:48;27.10;73.00
2639;DHT22;1329;51.384;7.122;2023-06-22T10:31:16;27.10;75.20
2639;DHT22;1329;51.384;7.122;2023-06-22T10:33:44;27.10;72.30
2639;DHT22;1329;51.384;7.122;2023-06-22T10:36:11;27.10;66.60
2639;DHT22;1329;51.384;7.122;2023-06-22T10:38:38;27.20;70.70
2639;DHT22;1329;51.384;7.122;2023-06-22T10:41:04;27.30;70.00
2639;DHT22;1329;51.384;7.122;2023-06-22T10:43:32;27.30;69.00
2639;DHT22;1329;51.384;7.122;2023-06-22T10:45:58;27.40;47.10
2639;DHT22;1329;51.384;7.122;2023-06-22T10:48:25;27.40;34.90
2639;DHT22;1329;51.384;7.122;2023-06-22T10:50:53;27.40;28.60
2639;DHT22;1329;51.384;7.122;2023-06-22T10:53:20;27.40;21.20
2639;DHT22;1329;51.384;7.122;2023-06-22T10:55:47;27.40;18.20
2639;DHT22;1329;51.384;7.122;2023-06-22T10:58:14;27.30;14.20
2639;DHT22;1329;51.384;7.122;2023-06-22T11:00:42;27.20;12.00
2639;DHT22;1329;51.384;7.122;2023-06-22T11:03:09;27.20;13.30
2639;DHT22;1329;51.384;7.122;2023-06-22T11:05:36;27.10;12.90
2639;DHT22;1329;51.384;7.122;2023-06-22T11:08:04;27.00;14.00
2639;DHT22;1329;51.384;7.122;2023-06-22T11:10:31;27.00;15.10
2639;DHT22;1329;51.384;7.122;2023-06-22T11:12:58;26.80;16.50
2639;DHT22;1329;51.384;7.122;2023-06-22T11:15:24;26.70;16.40
2639;DHT22;1329;51.384;7.122;2023-06-22T11:17:51;26.50;19.00
2639;DHT22;1329;51.384;7.122;2023-06-22T11:20:18;26.20;23.20
2639;DHT22;1329;51.384;7.122;2023-06-22T11:22:45;26.00;28.50
2639;DHT22;1329;51.384;7.122;2023-06-22T11:25:14;25.80;37.00
2639;DHT22;1329;51.384;7.122;2023-06-22T11:27:41;25.60;50.00
2639;DHT22;1329;51.384;7.122;2023-06-22T11:30:08;25.40;56.10
2639;DHT22;1329;51.384;7.122;2023-06-22T11:32:35;25.20;65.50
2639;DHT22;1329;51.384;7.122;2023-06-22T11:35:03;25.00;73.90
2639;DHT22;1329;51.384;7.122;2023-06-22T11:37:30;24.90;87.80
2639;DHT22;1329;51.384;7.122;2023-06-22T11:39:57;24.80;99.10
2639;DHT22;1329;51.384;7.122;2023-06-22T11:42:25;24.60;99.90
2639;DHT22;1329;51.384;7.122;2023-06-22T11:44:53;24.50;99.90
2639;DHT22;1329;51.384;7.122;2023-06-22T11:47:20;24.40;99.90
2639;DHT22;1329;51.384;7.122;2023-06-22T11:49:47;24.40;99.90
2639;DHT22;1329;51.384;7.122;2023-06-22T11:52:14;24.30;99.90
2639;DHT22;1329;51.384;7.122;2023-06-22T11:54:43;24.30;99.90
2639;DHT22;1329;51.384;7.122;2023-06-22T11:57:11;24.20;99.90
2639;DHT22;1329;51.384;7.122;2023-06-22T11:59:39;24.20;99.90
2639;DHT22;1329;51.384;7.122;2023-06-22T12:02:06;24.10;99.90
2639;DHT22;1329;51.384;7.122;2023-06-22T12:04:34;24.10;99.90
2639;DHT22;1329;51.384;7.122;2023-06-22T12:07:01;24.00;99.90
2639;DHT22;1329;51.384;7.122;2023-06-22T12:09:28;24.00;99.90
2639;DHT22;1329;51.384;7.122;2023-06-22T12:11:55;24.00;99.90
2639;DHT22;1329;51.384;7.122;2023-06-22T12:14:22;24.00;99.90
2639;DHT22;1329;51.384;7.122;2023-06-22T12:16:50;24.00;99.90
2639;DHT22;1329;51.384;7.122;2023-06-22T12:19:17;24.00;99.90
2639;DHT22;1329;51.384;7.122;2023-06-22T12:21:44;24.00;99.90
2639;DHT22;1329;51.384;7.122;2023-06-22T12:24:11;24.00;99.90
2639;DHT22;1329;51.384;7.122;2023-06-22T12:26:38;24.00;99.90
2639;DHT22;1329;51.384;7.122;2023-06-22T12:29:05;24.00;99.90
2639;DHT22;1329;51.384;7.122;2023-06-22T12:31:32;23.90;99.90
2639;DHT22;1329;51.384;7.122;2023-06-22T12:34:00;23.90;99.90
2639;DHT22;1329;51.384;7.122;2023-06-22T12:36:27;23.90;99.90
2639;DHT22;1329;51.384;7.122;2023-06-22T12:38:54;23.90;99.90
2639;DHT22;1329;51.384;7.122;2023-06-22T12:41:20;23.90;99.90
2639;DHT22;1329;51.384;7.122;2023-06-22T12:43:47;23.90;99.90
2639;DHT22;1329;51.384;7.122;2023-06-22T12:46:14;23.80;99.90
2639;DHT22;1329;51.384;7.122;2023-06-22T12:48:41;23.80;99.90
2639;DHT22;1329;51.384;7.122;2023-06-22T12:51:09;23.80;99.90
2639;DHT22;1329;51.384;7.122;2023-06-22T12:53:36;23.80;99.90
2639;DHT22;1329;51.384;7.122;2023-06-22T12:56:03;23.80;99.90
2639;DHT22;1329;51.384;7.122;2023-06-22T12:58:30;23.80;99.90
2639;DHT22;1329;51.384;7.122;2023-06-22T13:00:57;23.70;99.90
2639;DHT22;1329;51.384;7.122;2023-06-22T13:03:24;23.70;99.90
2639;DHT22;1329;51.384;7.122;2023-06-22T13:05:53;23.70;99.90
2639;DHT22;1329;51.384;7.122;2023-06-22T13:08:21;23.70;99.90
2639;DHT22;1329;51.384;7.122;2023-06-22T13:10:48;23.80;99.90
2639;DHT22;1329;51.384;7.122;2023-06-22T13:13:15;23.80;99.90
2639;DHT22;1329;51.384;7.122;2023-06-22T13:15:42;23.80;99.90
2639;DHT22;1329;51.384;7.122;2023-06-22T13:18:08;23.90;99.90
2639;DHT22;1329;51.384;7.122;2023-06-22T13:20:35;23.90;99.90
2639;DHT22;1329;51.384;7.122;2023-06-22T13:23:02;24.00;99.90
2639;DHT22;1329;51.384;7.122;2023-06-22T13:25:30;24.00;99.90
2639;DHT22;1329;51.384;7.122;2023-06-22T13:27:57;24.10;99.90
2639;DHT22;1329;51.384;7.122;2023-06-22T13:30:24;24.10;99.90
2639;DHT22;1329;51.384;7.122;2023-06-22T13:32:51;24.10;99.90
2639;DHT22;1329;51.384;7.122;2023-06-22T13:35:17;24.10;99.90
2639;DHT22;1329;51.384;7.122;2023-06-22T13:37:44;24.00;99.90
2639;DHT22;1329;51.384;7.122;2023-06-22T13:40:11;24.10;99.90
2639;DHT22;1329;51.384;7.122;2023-06-22T13:42:40;24.10;99.90
2639;DHT22;1329;51.384;7.122;2023-06-22T13:45:08;24.10;99.90
2639;DHT22;1329;51.384;7.122;2023-06-22T13:47:35;24.10;99.90
2639;DHT22;1329;51.384;7.122;2023-06-22T13:50:02;24.10;99.90
2639;DHT22;1329;51.384;7.122;2023-06-22T13:52:30;24.10;99.90
2639;DHT22;1329;51.384;7.122;2023-06-22T13:54:56;24.20;99.90
2639;DHT22;1329;51.384;7.122;2023-06-22T13:57:23;24.30;99.90
2639;DHT22;1329;51.384;7.122;2023-06-22T13:59:53;24.30;99.90
2639;DHT22;1329;51.384;7.122;2023-06-22T14:02:20;24.40;99.90
2639;DHT22;1329;51.384;7.122;2023-06-22T14:04:46;24.50;99.90
2639;DHT22;1329;51.384;7.122;2023-06-22T14:07:13;24.50;99.90
2639;DHT22;1329;51.384;7.122;2023-06-22T14:09:40;24.60;99.90
2639;DHT22;1329;51.384;7.122;2023-06-22T14:12:08;24.50;99.90
2639;DHT22;1329;51.384;7.122;2023-06-22T14:14:35;24.60;99.90
2639;DHT22;1329;51.384;7.122;2023-06-22T14:17:04;24.50;99.90
2639;DHT22;1329;51.384;7.122;2023-06-22T14:19:31;24.50;99.90
2639;DHT22;1329;51.384;7.122;2023-06-22T14:21:58;24.40;99.90
2639;DHT22;1329;51.384;7.122;2023-06-22T14:24:25;24.40;99.90
2639;DHT22;1329;51.384;7.122;2023-06-22T14:26:52;24.40;99.90
2639;DHT22;1329;51.384;7.122;2023-06-22T14:29:19;24.40;99.90
2639;DHT22;1329;51.384;7.122;2023-06-22T14:31:46;24.40;99.90
2639;DHT22;1329;51.384;7.122;2023-06-22T14:34:14;24.40;99.90
2639;DHT22;1329;51.384;7.122;2023-06-22T14:36:42;24.30;99.90
2639;DHT22;1329;51.384;7.122;2023-06-22T14:39:09;24.30;99.90
2639;DHT22;1329;51.384;7.122;2023-06-22T14:41:36;24.30;99.90
2639;DHT22;1329;51.384;7.122;2023-06-22T14:44:03;24.30;99.90
2639;DHT22;1329;51.384;7.122;2023-06-22T14:46:30;24.20;99.90
2639;DHT22;1329;51.384;7.122;2023-06-22T14:48:57;24.20;99.90
2639;DHT22;1329;51.384;7.122;2023-06-22T14:51:25;24.10;99.90
2639;DHT22;1329;51.384;7.122;2023-06-22T14:53:52;24.10;99.90
2639;DHT22;1329;51.384;7.122;2023-06-22T14:56:19;24.10;99.90
2639;DHT22;1329;51.384;7.122;2023-06-22T14:58:46;24.00;99.90
2639;DHT22;1329;51.384;7.122;2023-06-22T15:01:13;24.00;99.90
2639;DHT22;1329;51.384;7.122;2023-06-22T15:03:40;24.00;99.90
2639;DHT22;1329;51.384;7.122;2023-06-22T15:06:08;24.00;99.90
2639;DHT22;1329;51.384;7.122;2023-06-22T15:08:38;24.00;99.90
2639;DHT22;1329;51.384;7.122;2023-06-22T15:11:06;23.90;99.90
2639;DHT22;1329;51.384;7.122;2023-06-22T15:13:33;23.90;99.90
2639;DHT22;1329;51.384;7.122;2023-06-22T15:16:00;23.90;99.90
2639;DHT22;1329;51.384;7.122;2023-06-22T15:18:29;23.90;99.90
2639;DHT22;1329;51.384;7.122;2023-06-22T15:20:56;23.90;99.90
2639;DHT22;1329;51.384;7.122;2023-06-22T15:23:23;23.80;99.90
2639;DHT22;1329;51.384;7.122;2023-06-22T15:25:52;23.80;99.90
2639;DHT22;1329;51.384;7.122;2023-06-22T15:28:19;23.70;99.90
2639;DHT22;1329;51.384;7.122;2023-06-22T15:30:46;23.70;99.90
2639;DHT22;1329;51.384;7.122;2023-06-22T15:33:13;23.70;99.90
2639;DHT22;1329;51.384;7.122;2023-06-22T15:35:40;23.70;99.90
2639;DHT22;1329;51.384;7.122;2023-06-22T15:38:07;23.70;99.90
2639;DHT22;1329;51.384;7.122;2023-06-22T15:40:34;23.70;99.90
2639;DHT22;1329;51.384;7.122;2023-06-22T15:43:02;23.60;99.90
2639;DHT22;1329;51.384;7.122;2023-06-22T15:45:29;23.60;99.90
2639;DHT22;1329;51.384;7.122;2023-06-22T15:47:56;23.50;99.90
2639;DHT22;1329;51.384;7.122;2023-06-22T15:50:23;23.50;99.90
2639;DHT22;1329;51.384;7.122;2023-06-22T15:52:49;23.40;99.90
2639;DHT22;1329;51.384;7.122;2023-06-22T15:55:18;23.40;99.90
2639;DHT22;1329;51.384;7.122;2023-06-22T15:57:45;23.40;99.90
2639;DHT22;1329;51.384;7.122;2023-06-22T16:00:15;23.30;99.90
2639;DHT22;1329;51.384;7.122;2023-06-22T16:02:44;23.20;99.90
2639;DHT22;1329;51.384;7.122;2023-06-22T16:05:12;23.10;99.90
2639;DHT22;1329;51.384;7.122;2023-06-22T16:07:40;23.10;99.90
2639;DHT22;1329;51.384;7.122;2023-06-22T16:10:07;23.00;99.90